createdAt,value
2019-02-15T00:00:27.396Z,3.26
2019-02-15T00:01:27.371Z,3.24
2019-02-15T00:02:27.951Z,3.26
2019-02-15T00:03:27.313Z,3.26
2019-02-15T00:04:27.286Z,3.24
2019-02-15T00:05:27.260Z,3.22
2019-02-15T00:06:27.231Z,3.27
2019-02-15T00:07:27.205Z,3.26
2019-02-15T00:08:27.180Z,3.24
2019-02-15T00:09:27.159Z,3.27
2019-02-15T00:10:27.133Z,3.31
2019-02-15T00:11:27.097Z,3.24
2019-02-15T00:12:27.070Z,3.24
2019-02-15T00:13:27.044Z,3.26
2019-02-15T00:14:27.021Z,3.27
2019-02-15T00:15:26.990Z,3.22
2019-02-15T00:16:26.963Z,3.16
2019-02-15T00:17:26.936Z,3.26
2019-02-15T00:18:26.912Z,3.26
2019-02-15T00:19:26.888Z,3.13
2019-02-15T00:20:26.854Z,3.13
2019-02-15T00:21:26.827Z,3.15
2019-02-15T00:22:26.809Z,3.16
2019-02-15T00:23:26.773Z,3.12
2019-02-15T00:24:26.751Z,3.24
2019-02-15T00:25:26.719Z,3.13
2019-02-15T00:26:26.710Z,3.11
2019-02-15T00:27:26.664Z,3.12
2019-02-15T00:28:26.639Z,3.15
2019-02-15T00:29:26.611Z,3.12
2019-02-15T00:30:26.582Z,3.15
2019-02-15T00:31:26.558Z,3.11
2019-02-15T00:32:26.538Z,3.11
2019-02-15T00:33:26.511Z,3.18
2019-02-15T00:34:26.474Z,3.06
2019-02-15T00:35:26.447Z,3.15
2019-02-15T00:36:26.421Z,3.09
2019-02-15T00:37:26.394Z,3.06
2019-02-15T00:38:26.367Z,3.06
2019-02-15T00:39:26.342Z,3.05
2019-02-15T00:40:26.312Z,3.03
2019-02-15T00:41:26.284Z,2.91
2019-02-15T00:42:26.256Z,2.95
2019-02-15T00:43:26.233Z,2.94
2019-02-15T00:44:26.204Z,2.87
2019-02-15T00:45:26.177Z,2.95
2019-02-15T00:46:26.149Z,2.95
2019-02-15T00:47:26.122Z,2.95
2019-02-15T00:48:26.098Z,2.94
2019-02-15T00:49:26.072Z,3.00
2019-02-15T00:50:26.039Z,2.88
2019-02-15T00:51:26.012Z,2.93
2019-02-15T00:52:25.986Z,2.90
2019-02-15T00:53:25.958Z,2.90
2019-02-15T00:54:25.932Z,2.91
2019-02-15T00:55:25.904Z,2.91
2019-02-15T00:56:25.877Z,2.83
2019-02-15T00:57:25.849Z,2.97
2019-02-15T00:58:25.826Z,2.88
2019-02-15T00:59:25.795Z,2.80
2019-02-15T01:00:25.769Z,2.85
2019-02-15T01:01:25.741Z,2.82
2019-02-15T01:02:25.712Z,2.77
2019-02-15T01:03:25.685Z,2.88
2019-02-15T01:04:25.661Z,2.83
2019-02-15T01:05:25.637Z,2.76
2019-02-15T01:06:25.602Z,2.85
2019-02-15T01:07:25.575Z,2.85
2019-02-15T01:08:25.551Z,2.93
2019-02-15T01:09:25.560Z,2.75
2019-02-15T01:10:25.500Z,2.80
2019-02-15T01:11:25.469Z,2.80
2019-02-15T01:12:25.450Z,2.79
2019-02-15T01:13:31.002Z,2.79
2019-02-15T01:14:25.386Z,2.72
2019-02-15T01:15:25.362Z,2.76
2019-02-15T01:16:25.333Z,2.75
2019-02-15T01:17:25.305Z,2.72
2019-02-15T01:18:25.275Z,2.77
2019-02-15T01:19:25.252Z,2.77
2019-02-15T01:20:25.224Z,2.75
2019-02-15T01:21:25.198Z,2.76
2019-02-15T01:22:25.166Z,2.76
2019-02-15T01:23:25.139Z,2.77
2019-02-15T01:24:25.111Z,2.79
2019-02-15T01:25:25.106Z,2.68
2019-02-15T01:26:25.057Z,2.73
2019-02-15T01:27:25.029Z,2.70
2019-02-15T01:28:25.005Z,2.77
2019-02-15T01:29:24.975Z,2.68
2019-02-15T01:30:24.947Z,2.72
2019-02-15T01:31:24.922Z,2.70
2019-02-15T01:32:24.892Z,2.70
2019-02-15T01:33:24.866Z,2.59
2019-02-15T01:34:24.847Z,2.62
2019-02-15T01:35:24.810Z,2.58
2019-02-15T01:36:24.782Z,2.69
2019-02-15T01:37:24.759Z,2.64
2019-02-15T01:38:24.729Z,2.64
2019-02-15T01:39:24.703Z,2.59
2019-02-15T01:40:24.680Z,2.79
2019-02-15T01:41:24.648Z,2.73
2019-02-15T01:42:24.619Z,2.70
2019-02-15T01:43:24.593Z,2.65
2019-02-15T01:44:24.564Z,2.73
2019-02-15T01:45:24.538Z,2.68
2019-02-15T01:46:26.465Z,2.76
2019-02-15T01:47:24.482Z,2.73
2019-02-15T01:48:24.455Z,2.73
2019-02-15T01:49:24.428Z,2.70
2019-02-15T01:50:24.398Z,2.75
2019-02-15T01:51:24.370Z,2.73
2019-02-15T01:52:24.367Z,2.79
2019-02-15T01:53:24.318Z,2.70
2019-02-15T01:54:24.287Z,2.77
2019-02-15T01:55:24.272Z,2.70
2019-02-15T01:56:24.234Z,2.73
2019-02-15T01:57:24.204Z,2.58
2019-02-15T01:58:24.179Z,2.59
2019-02-15T01:59:24.149Z,2.62
2019-02-15T02:00:24.124Z,2.61
2019-02-15T02:01:24.096Z,2.68
2019-02-15T02:02:24.070Z,2.59
2019-02-15T02:03:24.040Z,2.62
2019-02-15T02:04:24.014Z,2.64
2019-02-15T02:05:23.986Z,2.62
2019-02-15T02:06:23.958Z,2.62
2019-02-15T02:07:23.930Z,2.65
2019-02-15T02:08:23.906Z,2.61
2019-02-15T02:09:23.876Z,2.57
2019-02-15T02:10:23.849Z,2.55
2019-02-15T02:11:23.827Z,2.54
2019-02-15T02:12:23.795Z,2.51
2019-02-15T02:13:23.764Z,2.52
2019-02-15T02:14:23.737Z,2.57
2019-02-15T02:15:23.709Z,2.52
2019-02-15T02:16:23.683Z,2.52
2019-02-15T02:17:23.654Z,2.52
2019-02-15T02:18:23.628Z,2.61
2019-02-15T02:19:23.599Z,2.55
2019-02-15T02:20:23.616Z,2.57
2019-02-15T02:21:23.544Z,2.52
2019-02-15T02:22:23.517Z,2.61
2019-02-15T02:23:23.488Z,2.59
2019-02-15T02:24:23.461Z,2.61
2019-02-15T02:25:23.437Z,2.51
2019-02-15T02:26:23.407Z,2.59
2019-02-15T02:27:23.377Z,2.54
2019-02-15T02:28:23.350Z,2.55
2019-02-15T02:29:23.323Z,2.58
2019-02-15T02:30:23.298Z,2.65
2019-02-15T02:31:23.271Z,2.58
2019-02-15T02:32:23.241Z,2.64
2019-02-15T02:33:23.213Z,2.68
2019-02-15T02:34:23.185Z,2.62
2019-02-15T02:35:23.158Z,2.61
2019-02-15T02:36:23.129Z,2.62
2019-02-15T02:37:23.102Z,2.55
2019-02-15T02:38:23.079Z,2.62
2019-02-15T02:39:23.048Z,2.62
2019-02-15T02:40:23.018Z,2.62
2019-02-15T02:41:22.993Z,2.54
2019-02-15T02:42:22.964Z,2.54
2019-02-15T02:43:22.936Z,2.62
2019-02-15T02:44:22.911Z,2.62
2019-02-15T02:45:22.884Z,2.61
2019-02-15T02:46:22.851Z,2.52
2019-02-15T02:47:22.825Z,2.58
2019-02-15T02:48:22.799Z,2.55
2019-02-15T02:49:22.781Z,2.57
2019-02-15T02:50:22.742Z,2.55
2019-02-15T02:51:22.717Z,2.57
2019-02-15T02:52:22.688Z,2.55
2019-02-15T02:53:22.662Z,2.57
2019-02-15T02:54:22.633Z,2.58
2019-02-15T02:55:22.606Z,2.54
2019-02-15T02:56:22.582Z,2.54
2019-02-15T02:57:22.556Z,2.55
2019-02-15T02:58:22.521Z,2.58
2019-02-15T02:59:22.502Z,2.61
2019-02-15T03:00:22.491Z,2.55
2019-02-15T03:01:23.203Z,2.57
2019-02-15T03:02:22.412Z,2.59
2019-02-15T03:03:22.389Z,2.58
2019-02-15T03:04:22.358Z,2.52
2019-02-15T03:05:22.332Z,2.54
2019-02-15T03:06:22.315Z,2.52
2019-02-15T03:07:22.273Z,2.50
2019-02-15T03:08:22.248Z,2.52
2019-02-15T03:09:22.274Z,2.55
2019-02-15T03:10:22.198Z,2.55
2019-02-15T03:11:22.162Z,2.58
2019-02-15T03:12:22.134Z,2.51
2019-02-15T03:13:22.107Z,2.55
2019-02-15T03:14:22.079Z,2.47
2019-02-15T03:15:22.051Z,2.57
2019-02-15T03:16:22.023Z,2.58
2019-02-15T03:17:21.996Z,2.55
2019-02-15T03:18:21.967Z,2.47
2019-02-15T03:19:21.940Z,2.51
2019-02-15T03:20:30.757Z,2.57
2019-02-15T03:21:21.885Z,2.52
2019-02-15T03:22:21.859Z,2.54
2019-02-15T03:23:21.843Z,2.52
2019-02-15T03:24:21.803Z,2.43
2019-02-15T03:25:21.775Z,2.51
2019-02-15T03:26:21.745Z,2.47
2019-02-15T03:27:21.719Z,2.46
2019-02-15T03:28:21.693Z,2.50
2019-02-15T03:29:21.678Z,2.47
2019-02-15T03:30:21.662Z,2.47
2019-02-15T03:31:21.612Z,2.44
2019-02-15T03:32:21.589Z,2.50
2019-02-15T03:33:21.642Z,2.46
2019-02-15T03:34:21.586Z,2.51
2019-02-15T03:35:21.499Z,2.50
2019-02-15T03:36:21.470Z,2.55
2019-02-15T03:37:21.441Z,2.52
2019-02-15T03:38:21.413Z,2.46
2019-02-15T03:39:21.386Z,2.47
2019-02-15T03:40:21.363Z,2.51
2019-02-15T03:41:21.332Z,2.50
2019-02-15T03:42:21.302Z,2.46
2019-02-15T03:43:21.274Z,2.44
2019-02-15T03:44:22.668Z,2.47
2019-02-15T03:45:21.221Z,2.44
2019-02-15T03:46:21.192Z,2.39
2019-02-15T03:47:21.164Z,2.47
2019-02-15T03:48:21.136Z,2.54
2019-02-15T03:49:21.109Z,2.47
2019-02-15T03:50:21.081Z,2.47
2019-02-15T03:51:21.106Z,2.41
2019-02-15T03:52:21.026Z,2.50
2019-02-15T03:53:20.998Z,2.44
2019-02-15T03:54:20.969Z,2.47
2019-02-15T03:55:20.948Z,2.43
2019-02-15T03:56:20.916Z,2.46
2019-02-15T03:57:20.890Z,2.40
2019-02-15T03:58:20.863Z,2.37
2019-02-15T03:59:20.833Z,2.36
2019-02-15T04:00:20.806Z,2.46
2019-02-15T04:01:20.778Z,2.36
2019-02-15T04:02:20.761Z,2.37
2019-02-15T04:03:20.721Z,2.34
2019-02-15T04:04:20.693Z,2.34
2019-02-15T04:05:20.665Z,2.40
2019-02-15T04:06:20.642Z,2.37
2019-02-15T04:07:20.614Z,2.33
2019-02-15T04:08:20.586Z,2.28
2019-02-15T04:09:20.557Z,2.28
2019-02-15T04:10:20.526Z,2.32
2019-02-15T04:11:20.498Z,2.32
2019-02-15T04:12:20.470Z,2.32
2019-02-15T04:13:20.441Z,2.36
2019-02-15T04:14:20.417Z,2.36
2019-02-15T04:15:20.388Z,2.34
2019-02-15T04:16:20.365Z,2.40
2019-02-15T04:17:20.332Z,2.34
2019-02-15T04:18:20.304Z,2.39
2019-02-15T04:19:20.275Z,2.30
2019-02-15T04:20:20.248Z,2.36
2019-02-15T04:21:20.235Z,2.32
2019-02-15T04:22:20.205Z,2.34
2019-02-15T04:23:20.164Z,2.32
2019-02-15T04:24:20.136Z,2.33
2019-02-15T04:25:20.114Z,2.28
2019-02-15T04:26:20.089Z,2.34
2019-02-15T04:27:20.057Z,2.39
2019-02-15T04:28:20.026Z,2.41
2019-02-15T04:29:19.999Z,2.34
2019-02-15T04:30:19.981Z,2.40
2019-02-15T04:31:19.952Z,2.34
2019-02-15T04:32:19.913Z,2.30
2019-02-15T04:33:19.891Z,2.30
2019-02-15T04:34:19.857Z,2.30
2019-02-15T04:35:19.833Z,2.37
2019-02-15T04:36:19.804Z,2.32
2019-02-15T04:37:19.784Z,2.32
2019-02-15T04:38:19.746Z,2.32
2019-02-15T04:39:19.721Z,2.32
2019-02-15T04:40:19.707Z,2.32
2019-02-15T04:41:19.677Z,2.26
2019-02-15T04:42:19.638Z,2.33
2019-02-15T04:43:19.624Z,2.36
2019-02-15T04:44:19.581Z,2.30
2019-02-15T04:45:19.551Z,2.32
2019-02-15T04:46:19.548Z,2.34
2019-02-15T04:47:19.500Z,2.30
2019-02-15T04:48:19.471Z,2.25
2019-02-15T04:49:19.509Z,2.26
2019-02-15T04:50:19.431Z,2.34
2019-02-15T04:51:19.386Z,2.28
2019-02-15T04:52:19.381Z,2.26
2019-02-15T04:53:19.341Z,2.28
2019-02-15T04:54:19.329Z,2.26
2019-02-15T04:55:19.294Z,2.26
2019-02-15T04:56:19.249Z,2.26
2019-02-15T04:57:19.217Z,2.28
2019-02-15T04:58:19.196Z,2.26
2019-02-15T04:59:19.162Z,2.26
2019-02-15T05:00:19.138Z,2.16
2019-02-15T05:01:19.116Z,2.26
2019-02-15T05:02:19.079Z,2.21
2019-02-15T05:03:19.658Z,2.16
2019-02-15T05:04:19.047Z,2.19
2019-02-15T05:05:19.002Z,2.21
2019-02-15T05:06:19.001Z,2.15
2019-02-15T05:07:18.943Z,2.22
2019-02-15T05:08:18.910Z,2.18
2019-02-15T05:09:18.882Z,2.16
2019-02-15T05:10:18.857Z,2.22
2019-02-15T05:11:18.828Z,2.19
2019-02-15T05:12:18.798Z,2.23
2019-02-15T05:13:18.773Z,2.22
2019-02-15T05:14:18.743Z,2.15
2019-02-15T05:15:18.718Z,2.21
2019-02-15T05:16:18.687Z,2.18
2019-02-15T05:17:18.659Z,2.16
2019-02-15T05:18:18.632Z,2.19
2019-02-15T05:19:18.602Z,2.19
2019-02-15T05:20:18.578Z,2.21
2019-02-15T05:21:18.546Z,2.23
2019-02-15T05:22:18.518Z,2.19
2019-02-15T05:23:18.493Z,2.19
2019-02-15T05:24:18.463Z,2.23
2019-02-15T05:25:18.441Z,2.21
2019-02-15T05:26:18.407Z,2.19
2019-02-15T05:27:18.379Z,2.18
2019-02-15T05:28:18.352Z,2.25
2019-02-15T05:29:18.342Z,2.21
2019-02-15T05:30:18.295Z,2.19
2019-02-15T05:31:18.269Z,2.19
2019-02-15T05:32:18.240Z,2.18
2019-02-15T05:33:18.221Z,2.16
2019-02-15T05:34:18.183Z,2.21
2019-02-15T05:35:18.157Z,2.18
2019-02-15T05:36:18.128Z,2.15
2019-02-15T05:37:18.101Z,2.19
2019-02-15T05:38:18.074Z,2.19
2019-02-15T05:39:18.061Z,2.21
2019-02-15T05:40:18.016Z,2.22
2019-02-15T05:41:18.000Z,2.19
2019-02-15T05:42:17.967Z,2.19
2019-02-15T05:43:17.936Z,2.23
2019-02-15T05:44:17.907Z,2.19
2019-02-15T05:45:17.880Z,2.19
2019-02-15T05:46:17.853Z,2.19
2019-02-15T05:47:17.819Z,2.18
2019-02-15T05:48:17.814Z,2.25
2019-02-15T05:49:17.768Z,2.28
2019-02-15T05:50:17.738Z,2.28
2019-02-15T05:51:17.713Z,2.26
2019-02-15T05:52:17.681Z,2.28
2019-02-15T05:53:17.654Z,2.26
2019-02-15T05:54:17.628Z,2.34
2019-02-15T05:55:17.601Z,2.33
2019-02-15T05:56:17.568Z,2.28
2019-02-15T05:57:17.542Z,2.28
2019-02-15T05:58:17.512Z,2.36
2019-02-15T05:59:17.485Z,2.46
2019-02-15T06:00:17.462Z,2.47
2019-02-15T06:01:17.438Z,2.43
2019-02-15T06:02:17.401Z,2.47
2019-02-15T06:03:17.375Z,2.47
2019-02-15T06:04:17.348Z,2.47
2019-02-15T06:05:17.319Z,2.50
2019-02-15T06:06:17.293Z,2.44
2019-02-15T06:07:17.269Z,2.41
2019-02-15T06:08:17.235Z,2.46
2019-02-15T06:09:17.207Z,2.46
2019-02-15T06:10:17.178Z,2.46
2019-02-15T06:11:17.151Z,2.51
2019-02-15T06:12:17.131Z,2.51
2019-02-15T06:13:17.098Z,2.50
2019-02-15T06:14:17.068Z,2.52
2019-02-15T06:15:17.041Z,2.47
2019-02-15T06:16:17.013Z,2.44
2019-02-15T06:17:17.006Z,2.46
2019-02-15T06:18:16.956Z,2.50
2019-02-15T06:19:16.935Z,2.51
2019-02-15T06:20:16.910Z,2.47
2019-02-15T06:21:16.876Z,2.46
2019-02-15T06:22:16.846Z,2.55
2019-02-15T06:23:16.824Z,2.44
2019-02-15T06:24:16.838Z,2.50
2019-02-15T06:25:16.764Z,2.54
2019-02-15T06:26:16.742Z,2.52
2019-02-15T06:27:16.707Z,2.54
2019-02-15T06:28:16.682Z,2.52
2019-02-15T06:29:16.656Z,2.41
2019-02-15T06:30:16.622Z,2.54
2019-02-15T06:31:16.598Z,2.55
2019-02-15T06:32:16.568Z,2.51
2019-02-15T06:33:16.542Z,2.54
2019-02-15T06:34:16.511Z,2.47
2019-02-15T06:35:16.488Z,2.54
2019-02-15T06:36:16.458Z,2.57
2019-02-15T06:37:16.429Z,2.51
2019-02-15T06:38:16.407Z,2.54
2019-02-15T06:39:16.375Z,2.54
2019-02-15T06:40:16.345Z,2.51
2019-02-15T06:41:16.330Z,2.57
2019-02-15T06:42:16.299Z,2.54
2019-02-15T06:43:16.263Z,2.52
2019-02-15T06:44:16.238Z,2.54
2019-02-15T06:45:24.408Z,2.54
2019-02-15T06:46:16.205Z,2.57
2019-02-15T06:47:16.152Z,2.57
2019-02-15T06:48:16.152Z,2.55
2019-02-15T06:49:16.097Z,2.54
2019-02-15T06:50:16.067Z,2.52
2019-02-15T06:51:16.043Z,2.54
2019-02-15T06:52:16.016Z,2.61
2019-02-15T06:53:15.986Z,2.55
2019-02-15T06:54:15.962Z,2.54
2019-02-15T06:55:15.929Z,2.54
2019-02-15T06:56:15.904Z,2.54
2019-02-15T06:57:15.884Z,2.55
2019-02-15T06:58:15.847Z,2.52
2019-02-15T06:59:15.819Z,2.54
2019-02-15T07:00:15.838Z,2.58
2019-02-15T07:01:15.767Z,2.55
2019-02-15T07:02:15.739Z,2.54
2019-02-15T07:03:15.713Z,2.55
2019-02-15T07:04:15.725Z,2.54
2019-02-15T07:05:15.653Z,2.50
2019-02-15T07:06:15.630Z,2.54
2019-02-15T07:07:15.596Z,2.55
2019-02-15T07:08:15.575Z,2.55
2019-02-15T07:09:15.544Z,2.54
2019-02-15T07:10:15.514Z,2.55
2019-02-15T07:11:15.487Z,2.57
2019-02-15T07:12:15.459Z,2.58
2019-02-15T07:13:15.431Z,2.65
2019-02-15T07:14:15.404Z,2.58
2019-02-15T07:15:15.377Z,2.65
2019-02-15T07:16:15.347Z,2.59
2019-02-15T07:17:15.321Z,2.62
2019-02-15T07:18:15.295Z,2.69
2019-02-15T07:19:15.265Z,2.62
2019-02-15T07:20:15.240Z,2.68
2019-02-15T07:21:15.226Z,2.70
2019-02-15T07:22:15.182Z,2.61
2019-02-15T07:23:15.156Z,2.68
2019-02-15T07:24:15.132Z,2.73
2019-02-15T07:25:15.105Z,2.68
2019-02-15T07:26:15.074Z,2.75
2019-02-15T07:27:15.120Z,2.75
2019-02-15T07:28:15.016Z,2.76
2019-02-15T07:29:14.994Z,2.79
2019-02-15T07:30:15.594Z,2.76
2019-02-15T07:31:14.937Z,2.76
2019-02-15T07:32:14.910Z,2.73
2019-02-15T07:33:14.882Z,2.70
2019-02-15T07:34:14.891Z,2.90
2019-02-15T07:35:14.834Z,2.90
2019-02-15T07:36:14.796Z,2.87
2019-02-15T07:37:14.771Z,2.90
2019-02-15T07:38:14.742Z,2.97
2019-02-15T07:39:14.713Z,2.90
2019-02-15T07:40:14.691Z,3.00
2019-02-15T07:41:14.658Z,2.94
2019-02-15T07:42:14.633Z,3.11
2019-02-15T07:43:14.626Z,3.12
2019-02-15T07:44:14.576Z,3.12
2019-02-15T07:45:14.549Z,3.09
2019-02-15T07:46:14.534Z,3.11
2019-02-15T07:47:14.495Z,3.13
2019-02-15T07:48:14.465Z,3.26
2019-02-15T07:49:14.442Z,3.21
2019-02-15T07:50:14.569Z,3.26
2019-02-15T07:51:14.382Z,3.21
2019-02-15T07:52:14.364Z,3.24
2019-02-15T07:53:14.351Z,3.36
2019-02-15T07:54:14.300Z,3.40
2019-02-15T07:55:14.275Z,3.37
2019-02-15T07:56:14.261Z,3.41
2019-02-15T07:57:14.217Z,3.48
2019-02-15T07:58:14.191Z,3.49
2019-02-15T07:59:14.164Z,3.55
2019-02-15T08:00:14.136Z,3.55
2019-02-15T08:01:14.110Z,3.74
2019-02-15T08:02:14.085Z,3.64
2019-02-15T08:03:14.055Z,3.73
2019-02-15T08:04:14.027Z,3.84
2019-02-15T08:05:14.004Z,3.76
2019-02-15T08:06:13.973Z,3.85
2019-02-15T08:07:13.947Z,3.92
2019-02-15T08:08:13.927Z,3.91
2019-02-15T08:09:13.895Z,3.96
2019-02-15T08:10:13.864Z,4.04
2019-02-15T08:11:13.838Z,4.13
2019-02-15T08:12:13.811Z,4.20
2019-02-15T08:13:13.784Z,4.16
2019-02-15T08:14:15.087Z,4.30
2019-02-15T08:15:13.731Z,4.30
2019-02-15T08:16:13.704Z,4.28
2019-02-15T08:17:13.679Z,4.28
2019-02-15T08:18:13.650Z,4.36
2019-02-15T08:19:13.624Z,4.39
2019-02-15T08:20:13.601Z,4.53
2019-02-15T08:21:13.584Z,4.56
2019-02-15T08:22:13.544Z,4.56
2019-02-15T08:23:13.520Z,4.60
2019-02-15T08:24:13.517Z,4.57
2019-02-15T08:25:13.472Z,4.64
2019-02-15T08:26:13.438Z,4.67
2019-02-15T08:27:13.425Z,4.74
2019-02-15T08:28:13.388Z,4.66
2019-02-15T08:29:13.358Z,4.70
2019-02-15T08:30:13.377Z,4.70
2019-02-15T08:31:13.312Z,4.71
2019-02-15T08:32:13.278Z,4.79
2019-02-15T08:33:13.255Z,4.75
2019-02-15T08:34:13.228Z,4.82
2019-02-15T08:35:13.200Z,4.84
2019-02-15T08:36:13.172Z,4.87
2019-02-15T08:37:13.898Z,4.83
2019-02-15T08:38:13.119Z,4.97
2019-02-15T08:39:13.093Z,4.95
2019-02-15T08:40:13.072Z,5.04
2019-02-15T08:41:13.043Z,5.13
2019-02-15T08:42:13.017Z,5.20
2019-02-15T08:43:12.989Z,5.20
2019-02-15T08:44:12.963Z,5.36
2019-02-15T08:45:12.940Z,5.36
2019-02-15T08:46:12.911Z,5.33
2019-02-15T08:47:12.885Z,5.51
2019-02-15T08:48:12.865Z,5.54
2019-02-15T08:49:12.833Z,5.62
2019-02-15T08:50:12.808Z,5.70
2019-02-15T08:51:12.787Z,5.69
2019-02-15T08:52:12.755Z,5.76
2019-02-15T08:53:12.730Z,5.67
2019-02-15T08:54:12.703Z,5.73
2019-02-15T08:55:12.678Z,5.76
2019-02-15T08:56:12.661Z,5.79
2019-02-15T08:57:12.627Z,5.80
2019-02-15T08:58:12.604Z,5.77
2019-02-15T08:59:12.575Z,5.90
2019-02-15T09:00:12.598Z,5.84
2019-02-15T09:01:12.523Z,5.88
2019-02-15T09:02:12.495Z,5.95
2019-02-15T09:03:12.473Z,6.06
2019-02-15T09:04:12.449Z,6.01
2019-02-15T09:05:12.433Z,6.01
2019-02-15T09:06:12.393Z,6.13
2019-02-15T09:07:12.367Z,6.09
2019-02-15T09:08:12.344Z,6.28
2019-02-15T09:09:12.320Z,6.26
2019-02-15T09:10:12.291Z,6.32
2019-02-15T09:11:12.267Z,6.35
2019-02-15T09:12:12.240Z,6.39
2019-02-15T09:13:12.215Z,6.53
2019-02-15T09:14:12.191Z,6.49
2019-02-15T09:15:12.163Z,6.60
2019-02-15T09:16:12.140Z,6.71
2019-02-15T09:17:12.114Z,6.67
2019-02-15T09:18:12.102Z,6.75
2019-02-15T09:19:12.061Z,6.85
2019-02-15T09:20:12.037Z,6.97
2019-02-15T09:21:12.012Z,7.04
2019-02-15T09:22:11.990Z,7.15
2019-02-15T09:23:12.333Z,7.10
2019-02-15T09:24:11.938Z,7.22
2019-02-15T09:25:11.910Z,7.25
2019-02-15T09:26:17.943Z,7.40
2019-02-15T09:27:11.861Z,7.47
2019-02-15T09:28:11.868Z,7.48
2019-02-15T09:29:11.813Z,7.64
2019-02-15T09:30:11.817Z,7.59
2019-02-15T09:31:11.759Z,7.58
2019-02-15T09:32:11.734Z,7.56
2019-02-15T09:33:11.710Z,7.75
2019-02-15T09:34:11.684Z,7.67
2019-02-15T09:35:11.662Z,7.81
2019-02-15T09:36:11.638Z,7.83
2019-02-15T09:37:11.617Z,7.91
2019-02-15T09:38:11.584Z,7.96
2019-02-15T09:39:11.559Z,8.03
2019-02-15T09:40:11.535Z,8.09
2019-02-15T09:41:11.512Z,8.14
2019-02-15T09:42:11.484Z,8.20
2019-02-15T09:43:11.460Z,8.26
2019-02-15T09:44:11.436Z,8.38
2019-02-15T09:45:11.413Z,8.35
2019-02-15T09:46:19.672Z,8.44
2019-02-15T09:47:11.376Z,8.46
2019-02-15T09:48:11.670Z,8.45
2019-02-15T09:49:11.322Z,8.41
2019-02-15T09:50:12.263Z,8.50
2019-02-15T09:51:11.263Z,8.53
2019-02-15T09:52:11.241Z,8.57
2019-02-15T09:53:11.217Z,8.69
2019-02-15T09:54:11.196Z,8.66
2019-02-15T09:55:11.165Z,8.74
2019-02-15T09:56:11.140Z,8.71
2019-02-15T09:57:11.116Z,8.71
2019-02-15T09:58:11.100Z,8.87
2019-02-15T09:59:11.068Z,8.89
2019-02-15T10:00:11.045Z,8.97
2019-02-15T10:01:11.021Z,8.92
2019-02-15T10:02:10.996Z,8.96
2019-02-15T10:03:10.974Z,9.09
2019-02-15T10:04:10.946Z,9.12
2019-02-15T10:05:10.950Z,9.05
2019-02-15T10:06:10.898Z,9.16
2019-02-15T10:07:10.875Z,9.26
2019-02-15T10:08:10.853Z,9.24
2019-02-15T10:09:10.827Z,9.34
2019-02-15T10:10:10.801Z,9.40
2019-02-15T10:11:10.785Z,9.36
2019-02-15T10:12:10.754Z,9.47
2019-02-15T10:13:10.731Z,9.54
2019-02-15T10:14:10.708Z,9.56
2019-02-15T10:15:10.693Z,9.56
2019-02-15T10:16:10.661Z,9.48
2019-02-15T10:17:10.637Z,9.55
2019-02-15T10:18:10.640Z,9.63
2019-02-15T10:19:10.594Z,9.54
2019-02-15T10:20:10.565Z,9.64
2019-02-15T10:21:10.542Z,9.62
2019-02-15T10:22:11.520Z,9.69
2019-02-15T10:23:10.506Z,9.70
2019-02-15T10:24:10.470Z,9.77
2019-02-15T10:25:10.448Z,9.72
2019-02-15T10:26:10.424Z,9.84
2019-02-15T10:27:10.413Z,9.91
2019-02-15T10:28:10.389Z,10.02
2019-02-15T10:29:10.362Z,9.97
2019-02-15T10:30:10.331Z,10.12
2019-02-15T10:31:10.314Z,10.17
2019-02-15T10:32:10.290Z,10.18
2019-02-15T10:33:10.264Z,10.20
2019-02-15T10:34:10.238Z,10.12
2019-02-15T10:35:10.216Z,10.31
2019-02-15T10:36:10.197Z,10.30
2019-02-15T10:37:10.179Z,10.33
2019-02-15T10:38:10.150Z,10.33
2019-02-15T10:39:10.129Z,10.49
2019-02-15T10:40:10.104Z,10.51
2019-02-15T10:41:10.078Z,10.51
2019-02-15T10:42:10.053Z,10.57
2019-02-15T10:43:10.031Z,10.61
2019-02-15T10:44:10.009Z,10.57
2019-02-15T10:45:09.986Z,10.69
2019-02-15T10:46:09.963Z,10.77
2019-02-15T10:47:14.175Z,10.79
2019-02-15T10:48:10.765Z,10.86
2019-02-15T10:49:09.903Z,10.92
2019-02-15T10:50:09.873Z,10.95
2019-02-15T10:51:09.850Z,11.01
2019-02-15T10:52:09.828Z,11.10
2019-02-15T10:53:11.081Z,11.13
2019-02-15T10:54:09.795Z,11.12
2019-02-15T10:55:09.760Z,11.18
2019-02-15T10:56:09.738Z,11.15
2019-02-15T10:57:09.716Z,11.20
2019-02-15T10:58:09.693Z,11.23
2019-02-15T10:59:11.164Z,11.23
2019-02-15T11:00:09.649Z,11.19
2019-02-15T11:01:09.626Z,11.25
2019-02-15T11:02:09.604Z,11.30
2019-02-15T11:03:09.582Z,11.30
2019-02-15T11:04:09.560Z,11.34
2019-02-15T11:05:17.110Z,11.34
2019-02-15T11:06:09.515Z,11.45
2019-02-15T11:07:09.501Z,11.43
2019-02-15T11:08:09.485Z,11.51
2019-02-15T11:09:09.480Z,11.58
2019-02-15T11:10:09.431Z,11.60
2019-02-15T11:11:09.409Z,11.65
2019-02-15T11:12:09.380Z,11.70
2019-02-15T11:13:09.368Z,11.67
2019-02-15T11:14:09.349Z,11.71
2019-02-15T11:15:09.316Z,11.77
2019-02-15T11:16:09.296Z,11.83
2019-02-15T11:17:09.283Z,11.81
2019-02-15T11:18:09.254Z,11.89
2019-02-15T11:19:09.228Z,11.95
2019-02-15T11:20:09.208Z,12.00
2019-02-15T11:21:09.214Z,12.05
2019-02-15T11:22:09.178Z,12.11
2019-02-15T11:23:09.157Z,12.14
2019-02-15T11:24:09.120Z,12.15
2019-02-15T11:25:09.101Z,12.14
2019-02-15T11:26:09.079Z,12.30
2019-02-15T11:27:09.061Z,12.30
2019-02-15T11:28:09.042Z,12.25
2019-02-15T11:29:09.020Z,12.40
2019-02-15T11:30:08.991Z,12.43
2019-02-15T11:31:08.971Z,12.37
2019-02-15T11:32:08.948Z,12.61
2019-02-15T11:33:08.931Z,12.53
2019-02-15T11:34:08.908Z,12.55
2019-02-15T11:35:08.887Z,12.63
2019-02-15T11:36:08.867Z,12.63
2019-02-15T11:37:08.847Z,12.63
2019-02-15T11:38:08.822Z,12.75
2019-02-15T11:39:08.802Z,12.83
2019-02-15T11:40:08.781Z,12.83
2019-02-15T11:41:11.112Z,12.86
2019-02-15T11:42:08.741Z,12.91
2019-02-15T11:43:08.719Z,12.91
2019-02-15T11:44:08.714Z,12.91
2019-02-15T11:45:08.676Z,12.88
2019-02-15T11:46:08.656Z,12.95
2019-02-15T11:47:08.635Z,12.87
2019-02-15T11:48:08.620Z,12.95
2019-02-15T11:49:08.596Z,13.06
2019-02-15T11:50:08.575Z,12.99
2019-02-15T11:51:08.577Z,13.17
2019-02-15T11:52:08.532Z,13.26
2019-02-15T11:53:08.511Z,13.19
2019-02-15T11:54:08.494Z,13.23
2019-02-15T11:55:08.473Z,13.39
2019-02-15T11:56:08.449Z,13.43
2019-02-15T11:57:08.429Z,13.54
2019-02-15T11:58:08.409Z,13.57
2019-02-15T11:59:08.389Z,13.55
2019-02-15T12:00:14.201Z,13.55
2019-02-15T12:01:08.349Z,13.61
2019-02-15T12:02:08.340Z,13.57
2019-02-15T12:03:08.314Z,13.71
2019-02-15T12:04:08.286Z,13.75
2019-02-15T12:05:08.271Z,13.67
2019-02-15T12:06:08.261Z,13.82
2019-02-15T12:07:08.225Z,13.76
2019-02-15T12:08:08.207Z,13.86
2019-02-15T12:09:08.187Z,13.93
2019-02-15T12:10:08.165Z,13.91
2019-02-15T12:11:08.147Z,13.97
2019-02-15T12:12:10.702Z,14.08
2019-02-15T12:13:08.111Z,14.04
2019-02-15T12:14:08.086Z,13.98
2019-02-15T12:15:08.068Z,14.07
2019-02-15T12:16:08.049Z,14.03
2019-02-15T12:17:08.027Z,14.04
2019-02-15T12:18:08.014Z,14.00
2019-02-15T12:19:08.000Z,14.03
2019-02-15T12:20:07.973Z,13.95
2019-02-15T12:21:07.948Z,14.04
2019-02-15T12:22:07.927Z,14.12
2019-02-15T12:23:07.913Z,14.26
2019-02-15T12:24:07.891Z,14.36
2019-02-15T12:25:07.873Z,14.49
2019-02-15T12:26:07.853Z,14.44
2019-02-15T12:27:07.833Z,14.58
2019-02-15T12:28:07.810Z,14.52
2019-02-15T12:29:07.804Z,14.55
2019-02-15T12:30:07.772Z,14.53
2019-02-15T12:31:07.752Z,14.58
2019-02-15T12:32:07.732Z,14.61
2019-02-15T12:33:07.722Z,14.59
2019-02-15T12:34:07.705Z,14.78
2019-02-15T12:35:07.674Z,14.79
2019-02-15T12:36:07.664Z,14.97
2019-02-15T12:37:07.637Z,14.97
2019-02-15T12:38:07.617Z,15.15
2019-02-15T12:39:07.597Z,15.22
2019-02-15T12:40:07.576Z,15.22
2019-02-15T12:41:07.566Z,15.22
2019-02-15T12:42:07.539Z,15.23
2019-02-15T12:43:07.519Z,15.33
2019-02-15T12:44:07.502Z,15.43
2019-02-15T12:45:07.484Z,15.37
2019-02-15T12:46:07.460Z,15.41
2019-02-15T12:47:14.880Z,15.41
2019-02-15T12:48:07.421Z,15.45
2019-02-15T12:49:07.403Z,15.44
2019-02-15T12:50:07.441Z,15.44
2019-02-15T12:51:07.366Z,15.36
2019-02-15T12:52:07.343Z,15.37
2019-02-15T12:53:07.324Z,15.32
2019-02-15T12:54:07.304Z,15.43
2019-02-15T12:55:07.285Z,15.39
2019-02-15T12:56:07.267Z,15.45
2019-02-15T12:57:07.247Z,15.44
2019-02-15T12:58:07.227Z,15.48
2019-02-15T12:59:07.213Z,15.50
2019-02-15T13:00:07.191Z,15.50
2019-02-15T13:01:07.170Z,15.52
2019-02-15T13:02:07.161Z,15.59
2019-02-15T13:03:07.131Z,15.67
2019-02-15T13:04:07.150Z,15.73
2019-02-15T13:05:07.094Z,15.83
2019-02-15T13:06:07.072Z,15.85
2019-02-15T13:07:07.056Z,15.88
2019-02-15T13:08:07.036Z,15.88
2019-02-15T13:09:07.019Z,15.90
2019-02-15T13:10:06.998Z,15.80
2019-02-15T13:11:06.998Z,15.84
2019-02-15T13:12:06.966Z,15.98